ADDS METAR Data INFO
IDs: Format: Raw Decoded Include TAF

Data at: 0110 UTC 24 Jun 2018

KASE 240053Z COR 25006G15KT 10SM CLR 25/M06 A3001 RMK AO2 SLP036 T02501061
KASE 232353Z COR 24006G15KT 10SM FEW120 25/M05 A3003 RMK AO2 SLP049 T02501050 10272 20228 58010
KASE 232253Z 34010G16KT 10SM SCT110 26/M05 A3005 RMK AO2 SLP051 T02611050
KASE 232153Z 31010G17KT 250V350 10SM SCT120 25/M06 A3006 RMK AO2 SLP059 T02501056
KASE 232053Z 36006G16KT 10SM FEW120 25/M06 A3007 RMK AO2 SLP057 T02501056 56016
KASE 231953Z 34011G18KT 280V360 10SM FEW100 24/M03 A3008 RMK AO2 SLP066 T02441028
KASE 231853Z 36010G18KT 10SM CLR 24/M02 A3010 RMK AO2 SLP074 T02391022
KASE 231753Z 06009KT 10SM CLR 23/M02 A3013 RMK AO2 SLP079 T02281017 10228 20056 58010
KASE 231653Z COR 35005 10SM CLR 21/M01 A3014 RMK AO2 SLP089 T02061006
KASE 231553Z VRB06KT 10SM CLR 18/M01 A3015 RMK AO2 SLP091 T01831011
KASE 231453Z 09003KT 10SM CLR 15/00 A3016 RMK AO2 SLP084 T01500000 52001
KASE 231353Z 15003KT 10SM CLR 12/00 A3016 RMK AO2 SLP093 T01170000
KASE 231253Z 00000KT 10SM CLR 09/00 A3015 RMK AO2 SLP086 T00940000
KASE 231153Z AUTO 21005KT 10SM CLR 06/M01 A3015 RMK AO2 SLP096 T00561011 10100 20056 58001
KASE 231053Z AUTO 22008KT 10SM CLR 07/M01 A3015 RMK AO2 SLP092 T00671011
KASE 230953Z AUTO 20006KT 10SM CLR 06/M01 A3016 RMK AO2 SLP096 T00611011
KASE 230853Z AUTO 20006KT 10SM CLR 08/M02 A3016 RMK AO2 SLP088 T00831017 58005
KASE 230753Z AUTO 21007KT 10SM CLR 08/M02 A3017 RMK AO2 SLP096 T00781022
KASE 230653Z AUTO 21005KT 10SM CLR 08/M02 A3017 RMK AO2 SLP097 T00781022 402670078
KASE 230553Z AUTO 20008KT 10SM CLR 10/M03 A3017 RMK AO2 SLP095 T01001033 10261 20089 51017
KASE 230453Z AUTO 20006KT 10SM CLR 11/M04 A3017 RMK AO2 SLP097 T01061039
KASE 230353Z AUTO 20003KT 10SM CLR 13/M06 A3015 RMK AO2 SLP095 T01331056
KASE 230253Z AUTO 31006KT 10SM CLR 21/M13 A3012 RMK AO2 SLP062 T02111133 53009
KASE 230153Z 32007KT 10SM CLR 22/M13 A3010 RMK AO2 SLP061 T02171133
KASE 230053Z 29012G18KT 10SM CLR 24/M13 A3009 RMK AO2 SLP057 T02441133
KASE 222353Z 35011G15KT 10SM CLR 26/M11 A3008 RMK AO2 SLP058 T02561111 10267 20228 58008
KASE 222253Z COR VRB03G15KT 10SM CLR 26/M13 A3009 RMK AO2 SLP059 T02561133
KASE 222153Z 24009G24KT 230V310 10SM CLR 26/M14 A3011 RMK AO2 PK WND 35027/2104 SLP062 T02561139
KASE 222053Z VRB05KT 10SM FEW110 26/M06 A3011 RMK AO2 SLP060 T02561056 56013
KASE 221953Z 33007G19KT 290V020 10SM FEW120 25/M05 A3013 RMK AO2 PK WND 36028/1943 SLP057 T02501050
KASE 221853Z VRB05G22KT 10SM SCT100 25/M02 A3014 RMK AO2 SLP058 T02501022
KASE 221753Z COR 36009KT 10SM CLR 24/M02 A3016 RMK AO2 SLP071 T02391017 10239 20089 58023
KASE 221653Z 13007KT 10SM CLR 21/01 A3019 RMK AO2 SLP089 T02110011
KASE 221553Z 16009KT 10SM FEW075 BKN100 18/01 A3021 RMK AO2 SLP108 T01780011
KASE 221453Z 00000KT 10SM BKN100 BKN110 17/01 A3024 RMK AO2 LTG DSNT N SLP112 T01720011 53017
KASE 221353Z 00000KT 10SM FEW110 15/00 A3021 RMK AO2 SLP102 T01500000